createdAt,value
2018-09-20T00:00:55.295Z,1011.90
2018-09-20T00:01:54.409Z,1011.89
2018-09-20T00:02:54.334Z,1011.88
2018-09-20T00:03:54.258Z,1011.89
2018-09-20T00:04:54.171Z,1011.85
2018-09-20T00:05:54.096Z,1011.85
2018-09-20T00:06:54.020Z,1011.87
2018-09-20T00:07:53.934Z,1011.81
2018-09-20T00:08:53.858Z,1011.80
2018-09-20T00:09:53.788Z,1011.79
2018-09-20T00:10:53.702Z,1011.75
2018-09-20T00:11:53.622Z,1011.76
2018-09-20T00:12:53.560Z,1011.77
2018-09-20T00:13:53.460Z,1011.76
2018-09-20T00:14:53.387Z,1011.77
2018-09-20T00:15:53.309Z,1011.79
2018-09-20T00:16:53.222Z,1011.78
2018-09-20T00:17:53.160Z,1011.80
2018-09-20T00:18:53.071Z,1011.79
2018-09-20T00:19:52.987Z,1011.78
2018-09-20T00:20:52.911Z,1011.78
2018-09-20T00:21:52.836Z,1011.76
2018-09-20T00:22:52.748Z,1011.77
2018-09-20T00:23:52.673Z,1011.75
2018-09-20T00:24:52.602Z,1011.78
2018-09-20T00:25:52.512Z,1011.75
2018-09-20T00:26:52.436Z,1011.76
2018-09-20T00:27:52.348Z,1011.76
2018-09-20T00:28:52.287Z,1011.78
2018-09-20T00:29:52.198Z,1011.78
2018-09-20T00:30:52.111Z,1011.78
2018-09-20T00:31:52.039Z,1011.78
2018-09-20T00:32:51.962Z,1011.79
2018-09-20T00:33:51.886Z,1011.76
2018-09-20T00:34:51.799Z,1011.77
2018-09-20T00:35:51.724Z,1011.78
2018-09-20T00:36:51.640Z,1011.79
2018-09-20T00:37:51.563Z,1011.77
2018-09-20T00:38:51.489Z,1011.80
2018-09-20T00:39:51.400Z,1011.80
2018-09-20T00:40:51.324Z,1011.81
2018-09-20T00:41:51.249Z,1011.77
2018-09-20T00:42:51.161Z,1011.79
2018-09-20T00:43:51.088Z,1011.78
2018-09-20T00:44:51.003Z,1011.78
2018-09-20T00:45:51.175Z,1011.79
2018-09-20T00:46:50.849Z,1011.80
2018-09-20T00:47:50.762Z,1011.78
2018-09-20T00:48:50.689Z,1011.84
2018-09-20T00:49:50.614Z,1011.85
2018-09-20T00:50:50.526Z,1011.84
2018-09-20T00:51:50.450Z,1011.86
2018-09-20T00:52:50.376Z,1011.89
2018-09-20T00:53:50.288Z,1011.87
2018-09-20T00:54:50.214Z,1011.88
2018-09-20T00:55:50.139Z,1011.87
2018-09-20T00:56:50.051Z,1011.88
2018-09-20T00:57:49.990Z,1011.87
2018-09-20T00:58:49.900Z,1011.89
2018-09-20T00:59:49.814Z,1011.89
2018-09-20T01:00:50.040Z,1011.89
2018-09-20T01:01:49.665Z,1011.88
2018-09-20T01:02:49.576Z,1011.87
2018-09-20T01:03:49.502Z,1011.89
2018-09-20T01:04:49.426Z,1011.92
2018-09-20T01:05:49.339Z,1011.92
2018-09-20T01:06:49.265Z,1011.94
2018-09-20T01:07:49.177Z,1011.95
2018-09-20T01:08:49.102Z,1011.96
2018-09-20T01:09:49.026Z,1011.96
2018-09-20T01:10:49.190Z,1012.02
2018-09-20T01:11:48.865Z,1012.04
2018-09-20T01:12:48.791Z,1012.05
2018-09-20T01:13:48.705Z,1012.06
2018-09-20T01:14:48.627Z,1012.04
2018-09-20T01:15:48.565Z,1012.03
2018-09-20T01:16:48.466Z,1012.04
2018-09-20T01:17:48.391Z,1012.08
2018-09-20T01:18:48.316Z,1012.07
2018-09-20T01:19:48.228Z,1012.08
2018-09-20T01:20:48.166Z,1012.15
2018-09-20T01:21:48.084Z,1012.13
2018-09-20T01:22:47.993Z,1012.15
2018-09-20T01:23:47.916Z,1012.13
2018-09-20T01:24:47.845Z,1012.14
2018-09-20T01:25:47.767Z,1012.17
2018-09-20T01:26:47.683Z,1012.17
2018-09-20T01:27:47.604Z,1012.17
2018-09-20T01:28:47.529Z,1012.17
2018-09-20T01:29:47.443Z,1012.20
2018-09-20T01:30:47.356Z,1012.19
2018-09-20T01:31:47.280Z,1012.15
2018-09-20T01:32:47.205Z,1012.17
2018-09-20T01:33:47.118Z,1012.20
2018-09-20T01:34:47.045Z,1012.19
2018-09-20T01:35:47.219Z,1012.15
2018-09-20T01:36:46.881Z,1012.15
2018-09-20T01:37:46.819Z,1012.18
2018-09-20T01:38:46.730Z,1012.16
2018-09-20T01:39:46.647Z,1012.19
2018-09-20T01:40:46.569Z,1012.21
2018-09-20T01:41:46.499Z,1012.19
2018-09-20T01:42:46.419Z,1012.20
2018-09-20T01:43:46.334Z,1012.23
2018-09-20T01:44:46.256Z,1012.24
2018-09-20T01:45:46.169Z,1012.28
2018-09-20T01:46:46.094Z,1012.25
2018-09-20T01:47:46.008Z,1012.26
2018-09-20T01:48:45.932Z,1012.28
2018-09-20T01:49:45.856Z,1012.32
2018-09-20T01:50:46.081Z,1012.30
2018-09-20T01:51:45.695Z,1012.36
2018-09-20T01:52:45.620Z,1012.34
2018-09-20T01:53:45.534Z,1012.35
2018-09-20T01:54:45.457Z,1012.31
2018-09-20T01:55:45.383Z,1012.36
2018-09-20T01:56:45.307Z,1012.35
2018-09-20T01:57:45.223Z,1012.37
2018-09-20T01:58:45.145Z,1012.37
2018-09-20T01:59:45.057Z,1012.43
2018-09-20T02:00:44.983Z,1012.42
2018-09-20T02:01:44.908Z,1012.48
2018-09-20T02:02:44.821Z,1012.43
2018-09-20T02:03:44.747Z,1012.47
2018-09-20T02:04:44.659Z,1012.45
2018-09-20T02:05:44.834Z,1012.51
2018-09-20T02:06:44.508Z,1012.50
2018-09-20T02:07:44.427Z,1012.52
2018-09-20T02:08:44.346Z,1012.53
2018-09-20T02:09:44.271Z,1012.53
2018-09-20T02:10:44.198Z,1012.56
2018-09-20T02:11:44.110Z,1012.52
2018-09-20T02:12:44.035Z,1012.57
2018-09-20T02:13:43.947Z,1012.58
2018-09-20T02:14:43.875Z,1012.56
2018-09-20T02:15:43.797Z,1012.55
2018-09-20T02:16:43.710Z,1012.56
2018-09-20T02:17:43.634Z,1012.54
2018-09-20T02:18:43.548Z,1012.58
2018-09-20T02:19:43.472Z,1012.56
2018-09-20T02:20:43.399Z,1012.55
2018-09-20T02:21:43.310Z,1012.59
2018-09-20T02:22:43.235Z,1012.57
2018-09-20T02:23:43.159Z,1012.60
2018-09-20T02:24:43.073Z,1012.57
2018-09-20T02:25:42.999Z,1012.56
2018-09-20T02:26:42.911Z,1012.53
2018-09-20T02:27:42.836Z,1012.57
2018-09-20T02:28:42.761Z,1012.54
2018-09-20T02:29:42.675Z,1012.57
2018-09-20T02:30:42.599Z,1012.56
2018-09-20T02:31:42.525Z,1012.56
2018-09-20T02:32:42.437Z,1012.59
2018-09-20T02:33:42.362Z,1012.61
2018-09-20T02:34:42.287Z,1012.57
2018-09-20T02:35:42.201Z,1012.62
2018-09-20T02:36:42.124Z,1012.62
2018-09-20T02:37:42.055Z,1012.65
2018-09-20T02:38:41.962Z,1012.69
2018-09-20T02:39:41.887Z,1012.73
2018-09-20T02:40:42.102Z,1012.72
2018-09-20T02:41:41.728Z,1012.72
2018-09-20T02:42:41.652Z,1012.69
2018-09-20T02:43:41.563Z,1012.74
2018-09-20T02:44:41.487Z,1012.71
2018-09-20T02:45:41.413Z,1012.75
2018-09-20T02:46:41.327Z,1012.75
2018-09-20T02:47:41.251Z,1012.79
2018-09-20T02:48:41.167Z,1012.81
2018-09-20T02:49:41.091Z,1012.80
2018-09-20T02:50:41.013Z,1012.86
2018-09-20T02:51:40.927Z,1012.85
2018-09-20T02:52:40.852Z,1012.87
2018-09-20T02:53:40.778Z,1012.88
2018-09-20T02:54:40.703Z,1012.83
2018-09-20T02:55:40.616Z,1012.84
2018-09-20T02:56:40.530Z,1012.79
2018-09-20T02:57:40.453Z,1012.78
2018-09-20T02:58:40.366Z,1012.80
2018-09-20T02:59:40.290Z,1012.79
2018-09-20T03:00:40.215Z,1012.80
2018-09-20T03:01:40.130Z,1012.79
2018-09-20T03:02:40.053Z,1012.76
2018-09-20T03:03:39.986Z,1012.81
2018-09-20T03:04:39.896Z,1012.79
2018-09-20T03:05:39.815Z,1012.79
2018-09-20T03:06:39.731Z,1012.77
2018-09-20T03:07:39.654Z,1012.76
2018-09-20T03:08:39.579Z,1012.73
2018-09-20T03:09:39.490Z,1012.73
2018-09-20T03:10:39.430Z,1012.78
2018-09-20T03:11:39.340Z,1012.76
2018-09-20T03:12:39.255Z,1012.79
2018-09-20T03:13:39.179Z,1012.77
2018-09-20T03:14:39.090Z,1012.78
2018-09-20T03:15:39.017Z,1012.77
2018-09-20T03:16:38.940Z,1012.79
2018-09-20T03:17:38.854Z,1012.78
2018-09-20T03:18:38.780Z,1012.80
2018-09-20T03:19:38.693Z,1012.81
2018-09-20T03:20:38.875Z,1012.80
2018-09-20T03:21:38.541Z,1012.83
2018-09-20T03:22:38.457Z,1012.84
2018-09-20T03:23:38.380Z,1012.82
2018-09-20T03:24:38.292Z,1012.80
2018-09-20T03:25:38.217Z,1012.78
2018-09-20T03:26:38.141Z,1012.76
2018-09-20T03:27:38.055Z,1012.78
2018-09-20T03:28:37.986Z,1012.78
2018-09-20T03:29:37.892Z,1012.77
2018-09-20T03:30:38.157Z,1012.75
2018-09-20T03:31:37.744Z,1012.77
2018-09-20T03:32:37.659Z,1012.76
2018-09-20T03:33:37.581Z,1012.81
2018-09-20T03:34:37.493Z,1012.76
2018-09-20T03:35:37.418Z,1012.79
2018-09-20T03:36:37.344Z,1012.78
2018-09-20T03:37:37.257Z,1012.84
2018-09-20T03:38:37.181Z,1012.88
2018-09-20T03:39:37.093Z,1012.87
2018-09-20T03:40:37.272Z,1012.86
2018-09-20T03:41:36.943Z,1012.89
2018-09-20T03:42:36.857Z,1012.87
2018-09-20T03:43:36.785Z,1012.87
2018-09-20T03:44:36.695Z,1012.88
2018-09-20T03:45:36.619Z,1012.88
2018-09-20T03:46:36.539Z,1012.88
2018-09-20T03:47:36.458Z,1012.87
2018-09-20T03:48:36.385Z,1012.85
2018-09-20T03:49:36.299Z,1012.85
2018-09-20T03:50:36.219Z,1012.84
2018-09-20T03:51:36.133Z,1012.83
2018-09-20T03:52:36.058Z,1012.78
2018-09-20T03:53:35.983Z,1012.78
2018-09-20T03:54:35.897Z,1012.78
2018-09-20T03:55:35.820Z,1012.77
2018-09-20T03:56:35.733Z,1012.76
2018-09-20T03:57:35.659Z,1012.79
2018-09-20T03:58:35.570Z,1012.80
2018-09-20T03:59:35.509Z,1012.79
2018-09-20T04:00:35.421Z,1012.78
2018-09-20T04:01:35.341Z,1012.79
2018-09-20T04:02:35.260Z,1012.84
2018-09-20T04:03:35.174Z,1012.84
2018-09-20T04:04:35.096Z,1012.84
2018-09-20T04:05:35.321Z,1012.83
2018-09-20T04:06:34.935Z,1012.84
2018-09-20T04:07:34.859Z,1012.87
2018-09-20T04:08:34.772Z,1012.84
2018-09-20T04:09:34.720Z,1012.86
2018-09-20T04:10:34.861Z,1012.86
2018-09-20T04:11:34.536Z,1012.83
2018-09-20T04:12:34.460Z,1012.86
2018-09-20T04:13:34.382Z,1012.85
2018-09-20T04:14:34.298Z,1012.85
2018-09-20T04:15:34.213Z,1012.83
2018-09-20T04:16:34.139Z,1012.86
2018-09-20T04:17:34.055Z,1012.88
2018-09-20T04:18:33.975Z,1012.91
2018-09-20T04:19:33.898Z,1012.90
2018-09-20T04:20:33.811Z,1012.87
2018-09-20T04:21:33.749Z,1012.88
2018-09-20T04:22:33.649Z,1012.87
2018-09-20T04:23:33.573Z,1012.91
2018-09-20T04:24:33.500Z,1012.95
2018-09-20T04:25:33.412Z,1012.98
2018-09-20T04:26:33.336Z,1012.97
2018-09-20T04:27:33.250Z,1012.93
2018-09-20T04:28:33.187Z,1012.98
2018-09-20T04:29:33.088Z,1012.97
2018-09-20T04:30:33.012Z,1012.94
2018-09-20T04:31:32.929Z,1012.96
2018-09-20T04:32:32.849Z,1012.99
2018-09-20T04:33:32.774Z,1012.98
2018-09-20T04:34:32.687Z,1012.99
2018-09-20T04:35:32.912Z,1012.97
2018-09-20T04:36:32.529Z,1012.97
2018-09-20T04:37:32.449Z,1012.98
2018-09-20T04:38:32.363Z,1012.97
2018-09-20T04:39:32.288Z,1012.96
2018-09-20T04:40:32.214Z,1012.95
2018-09-20T04:41:32.128Z,1012.94
2018-09-20T04:42:32.050Z,1012.96
2018-09-20T04:43:31.965Z,1012.97
2018-09-20T04:44:31.889Z,1012.97
2018-09-20T04:45:31.802Z,1012.99
2018-09-20T04:46:31.726Z,1013.00
2018-09-20T04:47:31.652Z,1013.01
2018-09-20T04:48:31.565Z,1013.04
2018-09-20T04:49:31.492Z,1013.03
2018-09-20T04:50:31.402Z,1013.01
2018-09-20T04:51:31.327Z,1013.05
2018-09-20T04:52:31.242Z,1013.03
2018-09-20T04:53:31.258Z,1013.01
2018-09-20T04:54:31.091Z,1013.03
2018-09-20T04:55:31.002Z,1012.98
2018-09-20T04:56:30.928Z,1012.98
2018-09-20T04:57:30.844Z,1013.05
2018-09-20T04:58:30.768Z,1013.00
2018-09-20T04:59:30.678Z,1013.04
2018-09-20T05:00:30.853Z,1013.06
2018-09-20T05:01:30.528Z,1013.08
2018-09-20T05:02:30.441Z,1013.07
2018-09-20T05:03:30.368Z,1013.10
2018-09-20T05:04:30.291Z,1013.06
2018-09-20T05:05:30.203Z,1013.10
2018-09-20T05:06:30.117Z,1013.08
2018-09-20T05:07:30.041Z,1013.10
2018-09-20T05:08:29.969Z,1013.12
2018-09-20T05:09:29.914Z,1013.15
2018-09-20T05:10:29.804Z,1013.20
2018-09-20T05:11:29.717Z,1013.13
2018-09-20T05:12:29.642Z,1013.17
2018-09-20T05:13:29.560Z,1013.18
2018-09-20T05:14:29.479Z,1013.24
2018-09-20T05:15:29.404Z,1013.23
2018-09-20T05:16:29.317Z,1013.23
2018-09-20T05:17:29.243Z,1013.22
2018-09-20T05:18:29.154Z,1013.22
2018-09-20T05:19:29.080Z,1013.27
2018-09-20T05:20:28.994Z,1013.26
2018-09-20T05:21:28.918Z,1013.29
2018-09-20T05:22:28.843Z,1013.30
2018-09-20T05:23:28.763Z,1013.31
2018-09-20T05:24:28.693Z,1013.33
2018-09-20T05:25:28.594Z,1013.36
2018-09-20T05:26:28.519Z,1013.34
2018-09-20T05:27:28.432Z,1013.37
2018-09-20T05:28:28.356Z,1013.40
2018-09-20T05:29:28.281Z,1013.35
2018-09-20T05:30:28.194Z,1013.36
2018-09-20T05:31:28.120Z,1013.36
2018-09-20T05:32:28.031Z,1013.33
2018-09-20T05:33:27.956Z,1013.34
2018-09-20T05:34:27.885Z,1013.39
2018-09-20T05:35:28.156Z,1013.39
2018-09-20T05:36:27.720Z,1013.42
2018-09-20T05:37:27.644Z,1013.44
2018-09-20T05:38:27.557Z,1013.44
2018-09-20T05:39:27.481Z,1013.45
2018-09-20T05:40:27.395Z,1013.47
2018-09-20T05:41:27.321Z,1013.48
2018-09-20T05:42:27.232Z,1013.51
2018-09-20T05:43:27.160Z,1013.52
2018-09-20T05:44:27.072Z,1013.54
2018-09-20T05:45:27.003Z,1013.52
2018-09-20T05:46:26.921Z,1013.56
2018-09-20T05:47:26.832Z,1013.53
2018-09-20T05:48:26.757Z,1013.53
2018-09-20T05:49:26.682Z,1013.57
2018-09-20T05:50:26.596Z,1013.57
2018-09-20T05:51:26.521Z,1013.63
2018-09-20T05:52:26.432Z,1013.64
2018-09-20T05:53:26.375Z,1013.67
2018-09-20T05:54:26.272Z,1013.66
2018-09-20T05:55:26.197Z,1013.64
2018-09-20T05:56:26.122Z,1013.65
2018-09-20T05:57:26.034Z,1013.63
2018-09-20T05:58:25.965Z,1013.60
2018-09-20T05:59:25.970Z,1013.59
2018-09-20T06:00:25.799Z,1013.60
2018-09-20T06:01:25.724Z,1013.62
2018-09-20T06:02:25.634Z,1013.63
2018-09-20T06:03:25.560Z,1013.64
2018-09-20T06:04:25.474Z,1013.65
2018-09-20T06:05:25.397Z,1013.70
2018-09-20T06:06:25.323Z,1013.66
2018-09-20T06:07:25.235Z,1013.68
2018-09-20T06:08:25.160Z,1013.69
2018-09-20T06:09:25.085Z,1013.69
2018-09-20T06:10:24.998Z,1013.71
2018-09-20T06:11:24.924Z,1013.72
2018-09-20T06:12:24.839Z,1013.71
2018-09-20T06:13:24.761Z,1013.74
2018-09-20T06:14:24.686Z,1013.72
2018-09-20T06:15:24.599Z,1013.74
2018-09-20T06:16:24.524Z,1013.74
2018-09-20T06:17:24.437Z,1013.73
2018-09-20T06:18:24.360Z,1013.76
2018-09-20T06:19:24.286Z,1013.77
2018-09-20T06:20:24.199Z,1013.77
2018-09-20T06:21:24.125Z,1013.78
2018-09-20T06:22:24.051Z,1013.80
2018-09-20T06:23:23.962Z,1013.77
2018-09-20T06:24:23.887Z,1013.77
2018-09-20T06:25:23.813Z,1013.80
2018-09-20T06:26:23.725Z,1013.83
2018-09-20T06:27:23.651Z,1013.84
2018-09-20T06:28:23.580Z,1013.81
2018-09-20T06:29:23.487Z,1013.83
2018-09-20T06:30:23.413Z,1013.86
2018-09-20T06:31:23.326Z,1013.87
2018-09-20T06:32:23.254Z,1013.86
2018-09-20T06:33:23.177Z,1013.80
2018-09-20T06:34:23.088Z,1013.81
2018-09-20T06:35:23.015Z,1013.82
2018-09-20T06:36:22.940Z,1013.79
2018-09-20T06:37:22.852Z,1013.82
2018-09-20T06:38:22.776Z,1013.83
2018-09-20T06:39:22.701Z,1013.86
2018-09-20T06:40:22.863Z,1013.84
2018-09-20T06:41:22.551Z,1013.85
2018-09-20T06:42:22.463Z,1013.84
2018-09-20T06:43:22.376Z,1013.82
2018-09-20T06:44:22.314Z,1013.82
2018-09-20T06:45:22.228Z,1013.85
2018-09-20T06:46:22.139Z,1013.85
2018-09-20T06:47:22.064Z,1013.80
2018-09-20T06:48:21.992Z,1013.82
2018-09-20T06:49:21.903Z,1013.79
2018-09-20T06:50:21.892Z,1013.83
2018-09-20T06:51:21.752Z,1013.81
2018-09-20T06:52:21.665Z,1013.84
2018-09-20T06:53:21.602Z,1013.74
2018-09-20T06:54:21.515Z,1013.75
2018-09-20T06:55:21.433Z,1013.75
2018-09-20T06:56:21.353Z,1013.72
2018-09-20T06:57:21.278Z,1013.71
2018-09-20T06:58:21.204Z,1013.76
2018-09-20T06:59:21.115Z,1013.72
2018-09-20T07:00:21.291Z,1013.73
2018-09-20T07:01:20.954Z,1013.74
2018-09-20T07:02:20.880Z,1013.74
2018-09-20T07:03:20.815Z,1013.75
2018-09-20T07:04:20.716Z,1013.76
2018-09-20T07:05:20.642Z,1013.78
2018-09-20T07:06:20.566Z,1013.78
2018-09-20T07:07:20.480Z,1013.78
2018-09-20T07:08:20.404Z,1013.76
2018-09-20T07:09:20.330Z,1013.81
2018-09-20T07:10:20.242Z,1013.83
2018-09-20T07:11:20.167Z,1013.83
2018-09-20T07:12:20.092Z,1013.86
2018-09-20T07:13:20.007Z,1013.87
2018-09-20T07:14:19.931Z,1013.88
2018-09-20T07:15:19.856Z,1013.86
2018-09-20T07:16:19.781Z,1013.91
2018-09-20T07:17:19.693Z,1013.91
2018-09-20T07:18:19.636Z,1013.84
2018-09-20T07:19:19.618Z,1013.85
2018-09-20T07:20:19.457Z,1013.88
2018-09-20T07:21:19.388Z,1013.90
2018-09-20T07:22:19.306Z,1013.91
2018-09-20T07:23:19.232Z,1013.89
2018-09-20T07:24:19.143Z,1013.93
2018-09-20T07:25:19.174Z,1013.93
2018-09-20T07:26:18.998Z,1013.94
2018-09-20T07:27:18.919Z,1013.94
2018-09-20T07:28:18.835Z,1013.94
2018-09-20T07:29:18.758Z,1013.97
2018-09-20T07:30:18.684Z,1014.00
2018-09-20T07:31:18.607Z,1014.00
2018-09-20T07:32:18.520Z,1013.96
2018-09-20T07:33:18.454Z,1013.98
2018-09-20T07:34:18.371Z,1013.97
2018-09-20T07:35:18.295Z,1013.97
2018-09-20T07:36:18.222Z,1014.01
2018-09-20T07:37:18.145Z,1014.06
2018-09-20T07:38:18.059Z,1013.96
2018-09-20T07:39:17.994Z,1014.07
2018-09-20T07:40:17.910Z,1014.06
2018-09-20T07:41:17.833Z,1014.11
2018-09-20T07:42:17.768Z,1014.12
2018-09-20T07:43:17.684Z,1014.15
2018-09-20T07:44:17.616Z,1014.11
2018-09-20T07:45:17.522Z,1014.11
2018-09-20T07:46:17.446Z,1014.13
2018-09-20T07:47:17.372Z,1014.11
2018-09-20T07:48:17.296Z,1014.12
2018-09-20T07:49:17.221Z,1014.11
2018-09-20T07:50:17.146Z,1014.13
2018-09-20T07:51:17.072Z,1014.10
2018-09-20T07:52:16.996Z,1014.16
2018-09-20T07:53:16.921Z,1014.14
2018-09-20T07:54:16.846Z,1014.17
2018-09-20T07:55:16.785Z,1014.13
2018-09-20T07:56:16.697Z,1014.15
2018-09-20T07:57:16.623Z,1014.15
2018-09-20T07:58:16.560Z,1014.15
2018-09-20T07:59:16.485Z,1014.14
2018-09-20T08:00:16.411Z,1014.17
2018-09-20T08:01:16.336Z,1014.18
2018-09-20T08:02:16.266Z,1014.15
2018-09-20T08:03:16.187Z,1014.13
2018-09-20T08:04:16.112Z,1014.14
2018-09-20T08:05:16.036Z,1014.09
2018-09-20T08:06:15.972Z,1014.07
2018-09-20T08:07:15.997Z,1014.10
2018-09-20T08:08:15.822Z,1014.07
2018-09-20T08:09:15.748Z,1014.07
2018-09-20T08:10:15.673Z,1014.08
2018-09-20T08:11:15.614Z,1014.08
2018-09-20T08:12:15.524Z,1014.10
2018-09-20T08:13:15.463Z,1014.11
2018-09-20T08:14:15.386Z,1014.12
2018-09-20T08:15:15.312Z,1014.13
2018-09-20T08:16:15.238Z,1014.14
2018-09-20T08:17:15.174Z,1014.15
2018-09-20T08:18:15.099Z,1014.08
2018-09-20T08:19:15.027Z,1014.09
2018-09-20T08:20:14.963Z,1014.11
2018-09-20T08:21:14.875Z,1014.10
2018-09-20T08:22:14.813Z,1014.10
2018-09-20T08:23:14.738Z,1014.09
2018-09-20T08:24:14.663Z,1014.08
2018-09-20T08:25:14.592Z,1014.01
2018-09-20T08:26:14.525Z,1014.08
2018-09-20T08:27:14.450Z,1014.10
2018-09-20T08:28:14.375Z,1014.05
2018-09-20T08:29:14.307Z,1014.04
2018-09-20T08:30:14.240Z,1014.01
2018-09-20T08:31:14.164Z,1014.07
2018-09-20T08:32:14.090Z,1014.06
2018-09-20T08:33:14.027Z,1014.01
2018-09-20T08:34:13.951Z,1014.07
2018-09-20T08:35:13.876Z,1014.06
2018-09-20T08:36:13.801Z,1014.07
2018-09-20T08:37:13.759Z,1014.06
2018-09-20T08:38:13.665Z,1014.07
2018-09-20T08:39:13.591Z,1014.04
2018-09-20T08:40:13.776Z,1014.02
2018-09-20T08:41:13.452Z,1014.02
2018-09-20T08:42:13.377Z,1014.03
2018-09-20T08:43:13.315Z,1014.03
2018-09-20T08:44:13.241Z,1014.10
2018-09-20T08:45:13.166Z,1014.09
2018-09-20T08:46:13.102Z,1014.06
2018-09-20T08:47:13.028Z,1014.02
2018-09-20T08:48:12.952Z,1014.04
2018-09-20T08:49:12.891Z,1014.03
2018-09-20T08:50:12.816Z,1013.97
2018-09-20T08:51:12.741Z,1013.99
2018-09-20T08:52:12.667Z,1014.00
2018-09-20T08:53:12.603Z,1013.98
2018-09-20T08:54:12.528Z,1013.99
2018-09-20T08:55:12.454Z,1013.99
2018-09-20T08:56:12.394Z,1014.04
2018-09-20T08:57:12.364Z,1014.04
2018-09-20T08:58:12.242Z,1014.03
2018-09-20T08:59:12.178Z,1014.04
2018-09-20T09:00:12.104Z,1014.05
2018-09-20T09:01:12.042Z,1014.04
2018-09-20T09:02:11.967Z,1014.02
2018-09-20T09:03:11.895Z,1013.95
2018-09-20T09:04:11.829Z,1013.95
2018-09-20T09:05:11.767Z,1013.92
2018-09-20T09:06:11.683Z,1013.89
2018-09-20T09:07:11.617Z,1013.86
2018-09-20T09:08:11.542Z,1013.88
2018-09-20T09:09:11.467Z,1013.92
2018-09-20T09:10:11.404Z,1013.91
2018-09-20T09:11:11.329Z,1013.95
2018-09-20T09:12:11.255Z,1013.91
2018-09-20T09:13:11.182Z,1013.90
2018-09-20T09:14:11.118Z,1013.91
2018-09-20T09:15:11.045Z,1013.90
2018-09-20T09:16:10.970Z,1013.93
2018-09-20T09:17:10.906Z,1013.90
2018-09-20T09:18:10.831Z,1013.93
2018-09-20T09:19:10.756Z,1013.93
2018-09-20T09:20:10.944Z,1013.92
2018-09-20T09:21:10.619Z,1013.94
2018-09-20T09:22:10.556Z,1013.89
2018-09-20T09:23:10.494Z,1013.90
2018-09-20T09:24:10.406Z,1013.89
2018-09-20T09:25:10.344Z,1013.93
2018-09-20T09:26:10.269Z,1013.93
2018-09-20T09:27:10.196Z,1013.91
2018-09-20T09:28:10.132Z,1013.92
2018-09-20T09:30:09.995Z,1013.87
2018-09-20T09:31:09.920Z,1013.87
2018-09-20T09:32:09.846Z,1013.86
2018-09-20T09:33:09.783Z,1013.85
2018-09-20T09:34:09.723Z,1013.80
2018-09-20T09:35:09.646Z,1013.78
2018-09-20T09:36:09.576Z,1013.78
2018-09-20T09:37:09.497Z,1013.73
2018-09-20T09:38:09.437Z,1013.72
2018-09-20T09:39:09.357Z,1013.75
2018-09-20T09:40:09.296Z,1013.72
2018-09-20T09:41:09.222Z,1013.70
2018-09-20T09:42:09.178Z,1013.68
2018-09-20T09:43:09.083Z,1013.67
2018-09-20T09:44:09.008Z,1013.65
2018-09-20T09:45:08.934Z,1013.64
2018-09-20T09:46:08.872Z,1013.57
2018-09-20T09:47:08.797Z,1013.58
2018-09-20T09:48:08.777Z,1013.55
2018-09-20T09:49:08.660Z,1013.54
2018-09-20T09:50:08.588Z,1013.52
2018-09-20T09:51:08.509Z,1013.54
2018-09-20T09:52:08.448Z,1013.53
2018-09-20T09:53:08.375Z,1013.49
2018-09-20T09:54:08.297Z,1013.50
2018-09-20T09:55:08.223Z,1013.42
2018-09-20T09:56:08.159Z,1013.40
2018-09-20T09:57:08.084Z,1013.46
2018-09-20T09:58:08.010Z,1013.39
2018-09-20T09:59:07.948Z,1013.40
2018-09-20T10:00:07.874Z,1013.39
2018-09-20T10:01:07.798Z,1013.38
2018-09-20T10:02:07.723Z,1013.36
2018-09-20T10:03:07.649Z,1013.30
2018-09-20T10:04:07.585Z,1013.30
2018-09-20T10:05:07.512Z,1013.32
2018-09-20T10:06:07.438Z,1013.25
2018-09-20T10:07:07.371Z,1013.25
2018-09-20T10:08:07.285Z,1013.26
2018-09-20T10:09:07.212Z,1013.24
2018-09-20T10:10:07.150Z,1013.23
2018-09-20T10:11:07.074Z,1013.22
2018-09-20T10:12:07.002Z,1013.21
2018-09-20T10:13:06.925Z,1013.15
2018-09-20T10:14:06.850Z,1013.16
2018-09-20T10:15:06.775Z,1013.14
2018-09-20T10:16:06.712Z,1013.08
2018-09-20T10:17:06.637Z,1013.09
2018-09-20T10:18:06.563Z,1013.11
2018-09-20T10:19:06.488Z,1013.11
2018-09-20T10:20:06.498Z,1013.13
2018-09-20T10:21:06.351Z,1013.12
2018-09-20T10:22:06.277Z,1013.08
2018-09-20T10:23:06.201Z,1013.07
2018-09-20T10:24:06.194Z,1013.08
2018-09-20T10:25:06.056Z,1013.09
2018-09-20T10:26:05.977Z,1013.07
2018-09-20T10:27:05.927Z,1013.05
2018-09-20T10:28:05.858Z,1013.04
2018-09-20T10:29:05.768Z,1013.04
2018-09-20T10:30:05.692Z,1012.98
2018-09-20T10:31:05.627Z,1013.02
2018-09-20T10:32:05.540Z,1012.93
2018-09-20T10:33:05.477Z,1013.02
2018-09-20T10:34:05.434Z,1012.97
2018-09-20T10:35:05.327Z,1012.96
2018-09-20T10:36:05.252Z,1012.94
2018-09-20T10:37:05.177Z,1012.91
2018-09-20T10:38:05.132Z,1012.90
2018-09-20T10:39:05.053Z,1012.93
2018-09-20T10:40:04.965Z,1012.93
2018-09-20T10:41:04.890Z,1012.92
2018-09-20T10:42:04.815Z,1012.87
2018-09-20T10:43:04.754Z,1012.85
2018-09-20T10:44:04.679Z,1012.84
2018-09-20T10:45:04.615Z,1012.82
2018-09-20T10:46:04.529Z,1012.81
2018-09-20T10:47:04.469Z,1012.80
2018-09-20T10:48:04.391Z,1012.76
2018-09-20T10:49:04.317Z,1012.71
2018-09-20T10:50:04.243Z,1012.79
2018-09-20T10:51:04.166Z,1012.77
2018-09-20T10:52:04.091Z,1012.74
2018-09-20T10:53:04.019Z,1012.73
2018-09-20T10:54:03.954Z,1012.70
2018-09-20T10:55:03.880Z,1012.68
2018-09-20T10:56:03.806Z,1012.69
2018-09-20T10:57:03.730Z,1012.70
2018-09-20T10:58:03.655Z,1012.71
2018-09-20T10:59:03.605Z,1012.73
2018-09-20T11:00:03.552Z,1012.68
2018-09-20T11:01:03.455Z,1012.73
2018-09-20T11:02:03.378Z,1012.70
2018-09-20T11:03:03.327Z,1012.67
2018-09-20T11:04:03.223Z,1012.65
2018-09-20T11:05:03.156Z,1012.63
2018-09-20T11:06:03.080Z,1012.64
2018-09-20T11:07:03.006Z,1012.66
2018-09-20T11:08:02.932Z,1012.65
2018-09-20T11:09:02.868Z,1012.65
2018-09-20T11:10:02.794Z,1012.69
2018-09-20T11:11:02.789Z,1012.61
2018-09-20T11:12:02.644Z,1012.62
2018-09-20T11:13:02.582Z,1012.67
2018-09-20T11:14:02.508Z,1012.62
2018-09-20T11:15:02.432Z,1012.62
2018-09-20T11:16:02.368Z,1012.63
2018-09-20T11:17:02.294Z,1012.58
2018-09-20T11:18:02.220Z,1012.57
2018-09-20T11:19:02.158Z,1012.55
2018-09-20T11:20:02.083Z,1012.52
2018-09-20T11:21:02.033Z,1012.58
2018-09-20T11:22:01.945Z,1012.57
2018-09-20T11:23:01.886Z,1012.57
2018-09-20T11:24:01.815Z,1012.57
2018-09-20T11:25:01.733Z,1012.52
2018-09-20T11:26:01.696Z,1012.46
2018-09-20T11:27:01.596Z,1012.44
2018-09-20T11:28:01.534Z,1012.45
2018-09-20T11:29:01.459Z,1012.41
2018-09-20T11:30:01.395Z,1012.39
2018-09-20T11:31:01.322Z,1012.39
2018-09-20T11:32:01.259Z,1012.41
2018-09-20T11:33:01.194Z,1012.33
2018-09-20T11:34:01.121Z,1012.28
2018-09-20T11:35:01.046Z,1012.30
2018-09-20T11:36:00.984Z,1012.30
2018-09-20T11:37:00.911Z,1012.28
2018-09-20T11:38:00.846Z,1012.28
2018-09-20T11:39:00.773Z,1012.29
2018-09-20T11:40:00.711Z,1012.23
2018-09-20T11:41:00.647Z,1012.24
2018-09-20T11:42:00.573Z,1012.22
2018-09-20T11:43:00.516Z,1012.22
2018-09-20T11:44:00.435Z,1012.19
2018-09-20T11:45:00.372Z,1012.16
2018-09-20T11:46:00.311Z,1012.15
2018-09-20T11:47:00.236Z,1012.14
2018-09-20T11:48:00.172Z,1012.10
2018-09-20T11:49:00.110Z,1012.12
2018-09-20T11:50:00.036Z,1012.03
2018-09-20T11:50:59.977Z,1012.02
2018-09-20T11:51:59.899Z,1012.05
2018-09-20T11:52:59.836Z,1012.04
2018-09-20T11:53:59.773Z,1012.01
2018-09-20T11:54:59.698Z,1012.08
2018-09-20T11:55:59.637Z,1012.01
2018-09-20T11:56:59.575Z,1011.96
2018-09-20T11:57:59.501Z,1011.92
2018-09-20T11:58:59.438Z,1011.91
2018-09-20T11:59:59.374Z,1011.89
2018-09-20T12:00:59.311Z,1011.89
2018-09-20T12:01:59.290Z,1011.83
2018-09-20T12:02:59.174Z,1011.84
2018-09-20T12:03:59.099Z,1011.87
2018-09-20T12:04:59.038Z,1011.90
2018-09-20T12:05:58.963Z,1011.87